Smithfield, Indiana
Current Conditions -  °F | °C
As of 4:53 AM on Friday 19 Dec 2014 (Local Time) from KMIE Reporting Station
Overcast Overcast  
Wind Chill: 21°   Ceiling: 2000
Heat Index: 26°   Visibility: 8mi
Dew Point: 20°   Wind: 5mph
Humidity: 78%   Direction: 280°W
Pressure: 30.24"   Gusts: NA
Location:  40.15°N, 85.2628°W
Report Text: KMIE 190953Z AUTO 28004KT 8SM OVC020 M03/M07 A3024 RMK AO2 SLP249 T10331067
Loading
Personal Weather Stations






























Interactive Weather Map New forecast layout! Learn more

10-Day Weather Forecast

Advertisements
Track Severe Weather on mobile